sensor_id;sensor_type;location;lat;lon;timestamp;temperature;humidity
21439;DHT22;10880;50.302;18.736;2022-12-24T00:00:02;10.90;68.60
21439;DHT22;10880;50.302;18.736;2022-12-24T00:02:33;10.90;68.60
21439;DHT22;10880;50.302;18.736;2022-12-24T00:05:00;10.90;68.80
21439;DHT22;10880;50.302;18.736;2022-12-24T00:07:26;10.90;68.90
21439;DHT22;10880;50.302;18.736;2022-12-24T00:14:46;10.90;68.90
21439;DHT22;10880;50.302;18.736;2022-12-24T00:17:12;10.90;68.80
21439;DHT22;10880;50.302;18.736;2022-12-24T00:19:39;10.90;68.90
21439;DHT22;10880;50.302;18.736;2022-12-24T00:22:05;10.90;68.80
21439;DHT22;10880;50.302;18.736;2022-12-24T00:24:32;10.90;68.80
21439;DHT22;10880;50.302;18.736;2022-12-24T00:26:58;10.90;69.00
21439;DHT22;10880;50.302;18.736;2022-12-24T00:29:25;10.90;69.00
21439;DHT22;10880;50.302;18.736;2022-12-24T00:31:51;10.90;69.00
21439;DHT22;10880;50.302;18.736;2022-12-24T00:34:18;10.90;69.10
21439;DHT22;10880;50.302;18.736;2022-12-24T00:36:44;10.90;69.00
21439;DHT22;10880;50.302;18.736;2022-12-24T00:41:37;10.90;69.00
21439;DHT22;10880;50.302;18.736;2022-12-24T00:44:05;10.90;69.00
21439;DHT22;10880;50.302;18.736;2022-12-24T00:46:36;10.90;68.80
21439;DHT22;10880;50.302;18.736;2022-12-24T00:49:04;11.00;68.90
21439;DHT22;10880;50.302;18.736;2022-12-24T00:53:57;10.90;68.50
21439;DHT22;10880;50.302;18.736;2022-12-24T00:56:24;10.90;69.10
21439;DHT22;10880;50.302;18.736;2022-12-24T00:58:52;10.90;68.70
21439;DHT22;10880;50.302;18.736;2022-12-24T01:03:45;10.90;68.60
21439;DHT22;10880;50.302;18.736;2022-12-24T01:06:15;10.90;68.50
21439;DHT22;10880;50.302;18.736;2022-12-24T01:08:42;10.90;69.10
21439;DHT22;10880;50.302;18.736;2022-12-24T01:11:12;10.90;68.60
21439;DHT22;10880;50.302;18.736;2022-12-24T01:16:17;10.90;68.30
21439;DHT22;10880;50.302;18.736;2022-12-24T01:21:11;10.90;68.30
21439;DHT22;10880;50.302;18.736;2022-12-24T01:26:04;10.90;68.30
21439;DHT22;10880;50.302;18.736;2022-12-24T01:28:32;8.70;67.10
21439;DHT22;10880;50.302;18.736;2022-12-24T01:30:59;10.90;69.00
21439;DHT22;10880;50.302;18.736;2022-12-24T01:33:29;10.90;68.70
21439;DHT22;10880;50.302;18.736;2022-12-24T01:38:22;10.90;68.60
21439;DHT22;10880;50.302;18.736;2022-12-24T01:40:49;12.40;69.60
21439;DHT22;10880;50.302;18.736;2022-12-24T01:43:34;10.90;69.20
21439;DHT22;10880;50.302;18.736;2022-12-24T01:51:11;10.90;69.00
21439;DHT22;10880;50.302;18.736;2022-12-24T01:53:42;10.90;69.80
21439;DHT22;10880;50.302;18.736;2022-12-24T01:56:10;10.90;69.80
21439;DHT22;10880;50.302;18.736;2022-12-24T01:58:39;10.90;69.40
21439;DHT22;10880;50.302;18.736;2022-12-24T02:01:08;10.90;69.40
21439;DHT22;10880;50.302;18.736;2022-12-24T02:03:34;10.90;69.50
21439;DHT22;10880;50.302;18.736;2022-12-24T02:08:32;10.90;69.80
21439;DHT22;10880;50.302;18.736;2022-12-24T02:11:16;10.90;70.10
21439;DHT22;10880;50.302;18.736;2022-12-24T02:13:55;10.90;70.30
21439;DHT22;10880;50.302;18.736;2022-12-24T02:19:16;10.90;70.50
21439;DHT22;10880;50.302;18.736;2022-12-24T02:24:48;11.00;70.70
21439;DHT22;10880;50.302;18.736;2022-12-24T02:30:13;11.00;70.60
21439;DHT22;10880;50.302;18.736;2022-12-24T02:35:12;11.10;70.10
21439;DHT22;10880;50.302;18.736;2022-12-24T02:37:57;11.10;70.10
21439;DHT22;10880;50.302;18.736;2022-12-24T02:40:37;11.10;70.20
21439;DHT22;10880;50.302;18.736;2022-12-24T02:43:10;11.10;70.70
21439;DHT22;10880;50.302;18.736;2022-12-24T02:45:39;11.10;70.60
21439;DHT22;10880;50.302;18.736;2022-12-24T02:48:07;11.10;70.60
21439;DHT22;10880;50.302;18.736;2022-12-24T02:50:34;11.10;70.60
21439;DHT22;10880;50.302;18.736;2022-12-24T02:53:05;11.10;70.10
21439;DHT22;10880;50.302;18.736;2022-12-24T03:11:57;11.90;70.90
21439;DHT22;10880;50.302;18.736;2022-12-24T03:14:25;11.20;70.00
21439;DHT22;10880;50.302;18.736;2022-12-24T03:16:53;11.20;70.50
21439;DHT22;10880;50.302;18.736;2022-12-24T03:19:21;11.20;70.50
21439;DHT22;10880;50.302;18.736;2022-12-24T03:21:50;11.20;70.50
21439;DHT22;10880;50.302;18.736;2022-12-24T03:24:17;11.20;70.50
21439;DHT22;10880;50.302;18.736;2022-12-24T03:26:50;11.20;70.00
21439;DHT22;10880;50.302;18.736;2022-12-24T03:29:18;11.20;69.70
21439;DHT22;10880;50.302;18.736;2022-12-24T03:31:48;11.20;70.40
21439;DHT22;10880;50.302;18.736;2022-12-24T03:34:16;11.20;69.80
21439;DHT22;10880;50.302;18.736;2022-12-24T03:36:45;11.20;69.60
21439;DHT22;10880;50.302;18.736;2022-12-24T03:39:14;11.20;69.80
21439;DHT22;10880;50.302;18.736;2022-12-24T03:46:35;11.20;69.70
21439;DHT22;10880;50.302;18.736;2022-12-24T03:49:02;11.20;69.70
21439;DHT22;10880;50.302;18.736;2022-12-24T03:51:28;11.10;69.50
21439;DHT22;10880;50.302;18.736;2022-12-24T03:53:56;11.20;70.00
21439;DHT22;10880;50.302;18.736;2022-12-24T03:56:23;11.20;70.30
21439;DHT22;10880;50.302;18.736;2022-12-24T03:58:50;11.10;69.60
21439;DHT22;10880;50.302;18.736;2022-12-24T04:01:17;11.20;69.80
21439;DHT22;10880;50.302;18.736;2022-12-24T04:03:45;11.10;70.20
21439;DHT22;10880;50.302;18.736;2022-12-24T04:06:14;11.10;70.20
21439;DHT22;10880;50.302;18.736;2022-12-24T04:08:41;11.10;70.20
21439;DHT22;10880;50.302;18.736;2022-12-24T04:11:10;11.10;70.50
21439;DHT22;10880;50.302;18.736;2022-12-24T04:13:37;11.10;70.00
21439;DHT22;10880;50.302;18.736;2022-12-24T04:16:09;11.10;69.90
21439;DHT22;10880;50.302;18.736;2022-12-24T04:18:36;11.10;69.40
21439;DHT22;10880;50.302;18.736;2022-12-24T04:23:31;11.10;69.60
21439;DHT22;10880;50.302;18.736;2022-12-24T04:26:00;11.10;69.60
21439;DHT22;10880;50.302;18.736;2022-12-24T04:28:29;11.10;69.60
21439;DHT22;10880;50.302;18.736;2022-12-24T04:31:05;11.10;70.10
21439;DHT22;10880;50.302;18.736;2022-12-24T04:36:01;11.10;69.30
21439;DHT22;10880;50.302;18.736;2022-12-24T04:38:29;11.10;69.20
21439;DHT22;10880;50.302;18.736;2022-12-24T04:41:13;11.10;69.80
21439;DHT22;10880;50.302;18.736;2022-12-24T04:43:40;11.10;69.80
21439;DHT22;10880;50.302;18.736;2022-12-24T04:46:15;11.10;69.20
21439;DHT22;10880;50.302;18.736;2022-12-24T04:48:45;11.00;69.10
21439;DHT22;10880;50.302;18.736;2022-12-24T04:51:13;11.10;69.30
21439;DHT22;10880;50.302;18.736;2022-12-24T04:53:41;11.00;69.80
21439;DHT22;10880;50.302;18.736;2022-12-24T04:56:19;11.00;69.40
21439;DHT22;10880;50.302;18.736;2022-12-24T05:01:23;11.00;69.30
21439;DHT22;10880;50.302;18.736;2022-12-24T05:06:20;11.00;69.20
21439;DHT22;10880;50.302;18.736;2022-12-24T05:08:47;11.00;69.30
21439;DHT22;10880;50.302;18.736;2022-12-24T05:11:15;11.00;69.20
21439;DHT22;10880;50.302;18.736;2022-12-24T05:13:43;11.00;69.80
21439;DHT22;10880;50.302;18.736;2022-12-24T05:16:10;11.00;69.80
21439;DHT22;10880;50.302;18.736;2022-12-24T05:18:38;11.00;70.00
21439;DHT22;10880;50.302;18.736;2022-12-24T05:21:09;11.00;69.90
21439;DHT22;10880;50.302;18.736;2022-12-24T05:23:36;11.00;70.00
21439;DHT22;10880;50.302;18.736;2022-12-24T05:26:40;11.00;69.30
21439;DHT22;10880;50.302;18.736;2022-12-24T05:29:09;11.00;70.00
21439;DHT22;10880;50.302;18.736;2022-12-24T05:31:37;11.00;69.80
21439;DHT22;10880;50.302;18.736;2022-12-24T05:34:06;11.00;69.80
21439;DHT22;10880;50.302;18.736;2022-12-24T05:36:32;11.00;70.00
21439;DHT22;10880;50.302;18.736;2022-12-24T05:38:59;11.00;69.80
21439;DHT22;10880;50.302;18.736;2022-12-24T05:41:26;11.00;69.60
21439;DHT22;10880;50.302;18.736;2022-12-24T05:43:52;11.10;69.60
21439;DHT22;10880;50.302;18.736;2022-12-24T05:46:21;11.10;69.70
21439;DHT22;10880;50.302;18.736;2022-12-24T05:48:48;11.10;70.20
21439;DHT22;10880;50.302;18.736;2022-12-24T05:51:17;11.10;69.70
21439;DHT22;10880;50.302;18.736;2022-12-24T05:53:45;11.10;70.20
21439;DHT22;10880;50.302;18.736;2022-12-24T05:56:18;11.10;70.00
21439;DHT22;10880;50.302;18.736;2022-12-24T05:58:48;11.10;69.60
21439;DHT22;10880;50.302;18.736;2022-12-24T06:03:44;11.20;69.70
21439;DHT22;10880;50.302;18.736;2022-12-24T06:06:14;11.10;69.40
21439;DHT22;10880;50.302;18.736;2022-12-24T06:08:44;11.20;69.70
21439;DHT22;10880;50.302;18.736;2022-12-24T06:11:13;11.20;69.70
21439;DHT22;10880;50.302;18.736;2022-12-24T06:13:40;11.20;69.60
21439;DHT22;10880;50.302;18.736;2022-12-24T06:16:16;11.20;69.60
21439;DHT22;10880;50.302;18.736;2022-12-24T06:18:43;11.20;70.20
21439;DHT22;10880;50.302;18.736;2022-12-24T06:21:11;11.30;69.70
21439;DHT22;10880;50.302;18.736;2022-12-24T06:23:40;11.30;69.70
21439;DHT22;10880;50.302;18.736;2022-12-24T06:26:08;11.30;69.60
21439;DHT22;10880;50.302;18.736;2022-12-24T06:28:36;11.30;70.30
21439;DHT22;10880;50.302;18.736;2022-12-24T06:31:04;11.30;69.70
21439;DHT22;10880;50.302;18.736;2022-12-24T06:33:32;11.30;70.20
21439;DHT22;10880;50.302;18.736;2022-12-24T06:35:59;11.30;70.10
21439;DHT22;10880;50.302;18.736;2022-12-24T06:38:26;11.30;69.90
21439;DHT22;10880;50.302;18.736;2022-12-24T06:40:54;11.40;69.80
21439;DHT22;10880;50.302;18.736;2022-12-24T06:43:21;11.40;69.80
21439;DHT22;10880;50.302;18.736;2022-12-24T06:45:47;11.40;70.00
21439;DHT22;10880;50.302;18.736;2022-12-24T06:48:15;11.40;69.80
21439;DHT22;10880;50.302;18.736;2022-12-24T06:50:41;11.40;70.20
21439;DHT22;10880;50.302;18.736;2022-12-24T06:53:08;11.40;69.90
21439;DHT22;10880;50.302;18.736;2022-12-24T06:55:35;11.40;69.70
21439;DHT22;10880;50.302;18.736;2022-12-24T06:58:02;11.40;69.80
21439;DHT22;10880;50.302;18.736;2022-12-24T07:00:29;11.40;70.30
21439;DHT22;10880;50.302;18.736;2022-12-24T07:02:56;11.50;69.80
21439;DHT22;10880;50.302;18.736;2022-12-24T07:05:24;11.50;69.80
21439;DHT22;10880;50.302;18.736;2022-12-24T07:07:50;11.50;70.00
21439;DHT22;10880;50.302;18.736;2022-12-24T07:10:18;11.50;69.70
21439;DHT22;10880;50.302;18.736;2022-12-24T07:12:45;11.50;70.40
21439;DHT22;10880;50.302;18.736;2022-12-24T07:15:13;11.50;70.20
21439;DHT22;10880;50.302;18.736;2022-12-24T07:17:40;11.50;70.30
21439;DHT22;10880;50.302;18.736;2022-12-24T07:20:09;11.50;70.00
21439;DHT22;10880;50.302;18.736;2022-12-24T07:25:04;11.60;70.10
21439;DHT22;10880;50.302;18.736;2022-12-24T07:27:30;11.60;70.40
21439;DHT22;10880;50.302;18.736;2022-12-24T07:29:57;11.60;70.10
21439;DHT22;10880;50.302;18.736;2022-12-24T07:32:23;11.60;70.20
21439;DHT22;10880;50.302;18.736;2022-12-24T07:34:50;11.60;69.90
21439;DHT22;10880;50.302;18.736;2022-12-24T07:37:17;11.60;70.20
21439;DHT22;10880;50.302;18.736;2022-12-24T07:39:44;11.70;70.10
21439;DHT22;10880;50.302;18.736;2022-12-24T07:42:10;11.60;69.90
21439;DHT22;10880;50.302;18.736;2022-12-24T07:47:08;11.70;69.90
21439;DHT22;10880;50.302;18.736;2022-12-24T07:49:34;11.70;70.20
21439;DHT22;10880;50.302;18.736;2022-12-24T07:52:02;11.70;70.00
21439;DHT22;10880;50.302;18.736;2022-12-24T07:56:56;11.70;70.00
21439;DHT22;10880;50.302;18.736;2022-12-24T07:59:23;11.70;70.00
21439;DHT22;10880;50.302;18.736;2022-12-24T08:01:50;11.80;70.10
21439;DHT22;10880;50.302;18.736;2022-12-24T08:04:16;11.80;70.20
21439;DHT22;10880;50.302;18.736;2022-12-24T08:06:43;11.80;70.10
21439;DHT22;10880;50.302;18.736;2022-12-24T08:11:36;11.80;70.10
21439;DHT22;10880;50.302;18.736;2022-12-24T08:14:03;11.80;70.40
21439;DHT22;10880;50.302;18.736;2022-12-24T08:16:29;11.90;70.30
21439;DHT22;10880;50.302;18.736;2022-12-24T08:18:56;11.90;70.00
21439;DHT22;10880;50.302;18.736;2022-12-24T08:21:23;11.90;70.30
21439;DHT22;10880;50.302;18.736;2022-12-24T08:26:16;11.90;70.00
21439;DHT22;10880;50.302;18.736;2022-12-24T08:28:43;12.00;70.30
21439;DHT22;10880;50.302;18.736;2022-12-24T08:31:10;11.90;70.40
21439;DHT22;10880;50.302;18.736;2022-12-24T08:33:36;12.00;70.00
21439;DHT22;10880;50.302;18.736;2022-12-24T08:36:03;12.00;70.40
21439;DHT22;10880;50.302;18.736;2022-12-24T08:38:30;12.00;70.70
21439;DHT22;10880;50.302;18.736;2022-12-24T08:40:56;12.10;70.50
21439;DHT22;10880;50.302;18.736;2022-12-24T08:43:23;12.00;70.50
21439;DHT22;10880;50.302;18.736;2022-12-24T08:45:51;12.10;70.50
21439;DHT22;10880;50.302;18.736;2022-12-24T08:48:18;12.10;70.60
21439;DHT22;10880;50.302;18.736;2022-12-24T08:50:44;12.10;70.80
21439;DHT22;10880;50.302;18.736;2022-12-24T08:53:12;12.20;70.70
21439;DHT22;10880;50.302;18.736;2022-12-24T08:55:39;12.20;70.80
21439;DHT22;10880;50.302;18.736;2022-12-24T08:58:05;12.30;70.70
21439;DHT22;10880;50.302;18.736;2022-12-24T09:00:32;12.30;70.80
21439;DHT22;10880;50.302;18.736;2022-12-24T09:07:54;12.40;70.20
21439;DHT22;10880;50.302;18.736;2022-12-24T09:10:21;12.40;70.30
21439;DHT22;10880;50.302;18.736;2022-12-24T09:12:50;12.50;70.60
21439;DHT22;10880;50.302;18.736;2022-12-24T09:15:16;12.50;70.90
21439;DHT22;10880;50.302;18.736;2022-12-24T09:20:13;12.60;70.30
21439;DHT22;10880;50.302;18.736;2022-12-24T09:22:39;12.60;70.60
21439;DHT22;10880;50.302;18.736;2022-12-24T09:25:09;12.60;70.40
21439;DHT22;10880;50.302;18.736;2022-12-24T09:27:38;12.60;70.40
21439;DHT22;10880;50.302;18.736;2022-12-24T09:30:08;12.60;70.30
21439;DHT22;10880;50.302;18.736;2022-12-24T09:35:05;12.70;70.40
21439;DHT22;10880;50.302;18.736;2022-12-24T09:39:58;12.80;70.60
21439;DHT22;10880;50.302;18.736;2022-12-24T09:42:50;12.80;70.50
21439;DHT22;10880;50.302;18.736;2022-12-24T09:45:31;12.80;70.90
21439;DHT22;10880;50.302;18.736;2022-12-24T09:48:12;12.90;70.20
21439;DHT22;10880;50.302;18.736;2022-12-24T09:50:51;12.80;70.20
21439;DHT22;10880;50.302;18.736;2022-12-24T09:56:10;12.90;70.30
21439;DHT22;10880;50.302;18.736;2022-12-24T10:03:46;12.90;69.70
21439;DHT22;10880;50.302;18.736;2022-12-24T10:06:23;13.00;69.60
21439;DHT22;10880;50.302;18.736;2022-12-24T10:11:49;12.90;70.30
21439;DHT22;10880;50.302;18.736;2022-12-24T10:22:59;13.00;70.70
21439;DHT22;10880;50.302;18.736;2022-12-24T10:28:14;13.00;69.90
21439;DHT22;10880;50.302;18.736;2022-12-24T10:30:45;13.00;69.90
21439;DHT22;10880;50.302;18.736;2022-12-24T10:33:30;13.10;70.10
21439;DHT22;10880;50.302;18.736;2022-12-24T10:35:58;13.00;70.50
21439;DHT22;10880;50.302;18.736;2022-12-24T10:38:24;13.00;70.00
21439;DHT22;10880;50.302;18.736;2022-12-24T10:40:54;13.10;69.90
21439;DHT22;10880;50.302;18.736;2022-12-24T10:43:24;13.10;70.00
21439;DHT22;10880;50.302;18.736;2022-12-24T10:46:22;13.10;70.10
21439;DHT22;10880;50.302;18.736;2022-12-24T10:48:52;13.10;70.50
21439;DHT22;10880;50.302;18.736;2022-12-24T10:54:19;13.10;70.00
21439;DHT22;10880;50.302;18.736;2022-12-24T10:56:48;13.10;70.40
21439;DHT22;10880;50.302;18.736;2022-12-24T11:02:00;13.20;70.00
21439;DHT22;10880;50.302;18.736;2022-12-24T11:04:30;13.20;69.80
21439;DHT22;10880;50.302;18.736;2022-12-24T11:07:02;13.20;69.90
21439;DHT22;10880;50.302;18.736;2022-12-24T11:09:31;13.20;70.40
21439;DHT22;10880;50.302;18.736;2022-12-24T11:11:59;13.20;69.90
21439;DHT22;10880;50.302;18.736;2022-12-24T11:14:35;13.10;69.90
21439;DHT22;10880;50.302;18.736;2022-12-24T11:17:03;13.20;70.00
21439;DHT22;10880;50.302;18.736;2022-12-24T11:22:02;13.20;70.00
21439;DHT22;10880;50.302;18.736;2022-12-24T11:24:34;13.20;69.80
21439;DHT22;10880;50.302;18.736;2022-12-24T11:29:50;13.20;69.70
21439;DHT22;10880;50.302;18.736;2022-12-24T11:32:21;13.20;69.70
21439;DHT22;10880;50.302;18.736;2022-12-24T11:34:49;13.20;69.80
21439;DHT22;10880;50.302;18.736;2022-12-24T11:37:17;13.20;69.80
21439;DHT22;10880;50.302;18.736;2022-12-24T11:39:57;13.20;69.80
21439;DHT22;10880;50.302;18.736;2022-12-24T11:45:00;13.20;70.00
21439;DHT22;10880;50.302;18.736;2022-12-24T11:47:39;13.20;70.40
21439;DHT22;10880;50.302;18.736;2022-12-24T11:50:28;13.20;69.70
21439;DHT22;10880;50.302;18.736;2022-12-24T11:53:06;13.20;70.80
21439;DHT22;10880;50.302;18.736;2022-12-24T11:55:47;13.20;70.20
21439;DHT22;10880;50.302;18.736;2022-12-24T11:58:20;13.20;70.80
21439;DHT22;10880;50.302;18.736;2022-12-24T12:00:55;13.20;70.20
21439;DHT22;10880;50.302;18.736;2022-12-24T12:03:41;13.30;70.70
21439;DHT22;10880;50.302;18.736;2022-12-24T12:06:30;13.30;70.10
21439;DHT22;10880;50.302;18.736;2022-12-24T12:09:02;13.20;70.80
21439;DHT22;10880;50.302;18.736;2022-12-24T12:11:32;13.30;70.10
21439;DHT22;10880;50.302;18.736;2022-12-24T12:14:02;13.30;70.60
21439;DHT22;10880;50.302;18.736;2022-12-24T12:16:44;13.30;70.00
21439;DHT22;10880;50.302;18.736;2022-12-24T12:22:28;13.30;70.30
21439;DHT22;10880;50.302;18.736;2022-12-24T12:25:00;13.30;69.90
21439;DHT22;10880;50.302;18.736;2022-12-24T12:27:34;14.20;70.70
21439;DHT22;10880;50.302;18.736;2022-12-24T12:30:09;13.20;70.40
21439;DHT22;10880;50.302;18.736;2022-12-24T12:32:54;13.20;70.40
21439;DHT22;10880;50.302;18.736;2022-12-24T12:35:30;13.30;70.00
21439;DHT22;10880;50.302;18.736;2022-12-24T12:38:04;13.30;70.50
21439;DHT22;10880;50.302;18.736;2022-12-24T12:43:34;13.20;70.30
21439;DHT22;10880;50.302;18.736;2022-12-24T12:48:48;13.30;70.10
21439;DHT22;10880;50.302;18.736;2022-12-24T12:52:25;13.20;70.40
21439;DHT22;10880;50.302;18.736;2022-12-24T12:54:30;13.30;70.00
21439;DHT22;10880;50.302;18.736;2022-12-24T12:57:05;13.30;70.00
21439;DHT22;10880;50.302;18.736;2022-12-24T13:08:03;13.30;70.10
21439;DHT22;10880;50.302;18.736;2022-12-24T13:13:50;13.30;70.60
21439;DHT22;10880;50.302;18.736;2022-12-24T13:16:59;13.40;70.50
21439;DHT22;10880;50.302;18.736;2022-12-24T13:22:20;13.40;70.10
21439;DHT22;10880;50.302;18.736;2022-12-24T13:24:50;13.40;70.30
21439;DHT22;10880;50.302;18.736;2022-12-24T13:27:22;13.40;70.20
21439;DHT22;10880;50.302;18.736;2022-12-24T13:34:57;13.30;69.60
21439;DHT22;10880;50.302;18.736;2022-12-24T13:37:33;13.30;69.60
21439;DHT22;10880;50.302;18.736;2022-12-24T13:53:39;13.20;70.30
21439;DHT22;10880;50.302;18.736;2022-12-24T13:58:43;13.20;69.60
21439;DHT22;10880;50.302;18.736;2022-12-24T14:01:13;13.20;69.70
21439;DHT22;10880;50.302;18.736;2022-12-24T14:03:51;13.20;70.30
21439;DHT22;10880;50.302;18.736;2022-12-24T14:08:56;13.20;70.30
21439;DHT22;10880;50.302;18.736;2022-12-24T14:11:25;13.20;69.70
21439;DHT22;10880;50.302;18.736;2022-12-24T14:14:24;13.20;70.30
21439;DHT22;10880;50.302;18.736;2022-12-24T14:16:52;13.20;69.70
21439;DHT22;10880;50.302;18.736;2022-12-24T14:19:25;13.20;69.60
21439;DHT22;10880;50.302;18.736;2022-12-24T14:24:42;13.20;69.60
21439;DHT22;10880;50.302;18.736;2022-12-24T14:27:38;13.30;69.50
21439;DHT22;10880;50.302;18.736;2022-12-24T14:32:39;13.20;69.40
21439;DHT22;10880;50.302;18.736;2022-12-24T14:37:41;13.20;70.10
21439;DHT22;10880;50.302;18.736;2022-12-24T14:40:18;13.20;69.40
21439;DHT22;10880;50.302;18.736;2022-12-24T14:43:01;13.20;69.40
21439;DHT22;10880;50.302;18.736;2022-12-24T14:48:24;13.20;69.80
21439;DHT22;10880;50.302;18.736;2022-12-24T14:56:17;13.20;69.50
21439;DHT22;10880;50.302;18.736;2022-12-24T14:58:45;13.20;70.00
21439;DHT22;10880;50.302;18.736;2022-12-24T15:01:27;13.20;69.90
21439;DHT22;10880;50.302;18.736;2022-12-24T15:06:50;13.20;69.60
21439;DHT22;10880;50.302;18.736;2022-12-24T15:09:25;13.10;70.20
21439;DHT22;10880;50.302;18.736;2022-12-24T15:11:57;13.20;69.50
21439;DHT22;10880;50.302;18.736;2022-12-24T15:14:26;13.20;69.50
21439;DHT22;10880;50.302;18.736;2022-12-24T15:17:04;13.20;69.40
21439;DHT22;10880;50.302;18.736;2022-12-24T15:19:37;13.20;69.90
21439;DHT22;10880;50.302;18.736;2022-12-24T15:22:14;14.60;70.70
21439;DHT22;10880;50.302;18.736;2022-12-24T15:24:45;13.20;69.80
21439;DHT22;10880;50.302;18.736;2022-12-24T15:27:23;13.20;69.20
21439;DHT22;10880;50.302;18.736;2022-12-24T15:29:52;13.20;69.10
21439;DHT22;10880;50.302;18.736;2022-12-24T15:32:22;13.20;69.80
21439;DHT22;10880;50.302;18.736;2022-12-24T15:34:54;13.20;69.70
21439;DHT22;10880;50.302;18.736;2022-12-24T15:37:35;13.20;69.60
21439;DHT22;10880;50.302;18.736;2022-12-24T15:40:15;13.20;68.90
21439;DHT22;10880;50.302;18.736;2022-12-24T15:42:45;13.20;69.70
21439;DHT22;10880;50.302;18.736;2022-12-24T15:45:16;13.20;69.40
21439;DHT22;10880;50.302;18.736;2022-12-24T15:47:54;13.20;69.50
21439;DHT22;10880;50.302;18.736;2022-12-24T15:50:29;13.20;68.80
21439;DHT22;10880;50.302;18.736;2022-12-24T15:53:06;13.20;69.50
21439;DHT22;10880;50.302;18.736;2022-12-24T15:55:37;13.30;68.80
21439;DHT22;10880;50.302;18.736;2022-12-24T15:58:25;13.20;68.80
21439;DHT22;10880;50.302;18.736;2022-12-24T16:03:39;13.20;68.80
21439;DHT22;10880;50.302;18.736;2022-12-24T16:06:07;13.20;68.70
21439;DHT22;10880;50.302;18.736;2022-12-24T16:08:35;13.20;68.70
21439;DHT22;10880;50.302;18.736;2022-12-24T16:11:20;13.20;69.30
21439;DHT22;10880;50.302;18.736;2022-12-24T16:14:14;13.20;68.60
21439;DHT22;10880;50.302;18.736;2022-12-24T16:16:47;13.20;69.10
21439;DHT22;10880;50.302;18.736;2022-12-24T16:19:23;13.20;68.40
21439;DHT22;10880;50.302;18.736;2022-12-24T16:21:53;13.20;68.40
21439;DHT22;10880;50.302;18.736;2022-12-24T16:24:29;13.20;68.20
21439;DHT22;10880;50.302;18.736;2022-12-24T16:26:57;13.10;68.90
21439;DHT22;10880;50.302;18.736;2022-12-24T16:31:54;13.10;68.30
21439;DHT22;10880;50.302;18.736;2022-12-24T16:34:31;13.00;68.80
21439;DHT22;10880;50.302;18.736;2022-12-24T16:36:58;13.10;68.50
21439;DHT22;10880;50.302;18.736;2022-12-24T16:39:31;13.00;68.70
21439;DHT22;10880;50.302;18.736;2022-12-24T16:42:00;13.00;68.20
21439;DHT22;10880;50.302;18.736;2022-12-24T16:44:46;12.90;68.60
21439;DHT22;10880;50.302;18.736;2022-12-24T16:47:18;12.90;68.10
21439;DHT22;10880;50.302;18.736;2022-12-24T16:49:50;12.90;69.20
21439;DHT22;10880;50.302;18.736;2022-12-24T16:52:19;12.90;68.20
21439;DHT22;10880;50.302;18.736;2022-12-24T16:54:48;12.90;68.20
21439;DHT22;10880;50.302;18.736;2022-12-24T16:57:15;12.80;69.70
21439;DHT22;10880;50.302;18.736;2022-12-24T16:59:41;13.00;68.40
21439;DHT22;10880;50.302;18.736;2022-12-24T17:02:12;12.80;68.40
21439;DHT22;10880;50.302;18.736;2022-12-24T17:04:38;12.80;68.30
21439;DHT22;10880;50.302;18.736;2022-12-24T17:07:06;12.80;68.40
21439;DHT22;10880;50.302;18.736;2022-12-24T17:09:35;12.80;68.30
21439;DHT22;10880;50.302;18.736;2022-12-24T17:12:02;12.80;68.60
21439;DHT22;10880;50.302;18.736;2022-12-24T17:14:28;12.80;69.00
21439;DHT22;10880;50.302;18.736;2022-12-24T17:16:55;12.80;68.50
21439;DHT22;10880;50.302;18.736;2022-12-24T17:19:21;12.80;68.20
21439;DHT22;10880;50.302;18.736;2022-12-24T17:21:48;12.80;68.20
21439;DHT22;10880;50.302;18.736;2022-12-24T17:24:15;12.80;68.70
21439;DHT22;10880;50.302;18.736;2022-12-24T17:26:41;12.80;68.40
21439;DHT22;10880;50.302;18.736;2022-12-24T17:29:10;12.80;68.00
21439;DHT22;10880;50.302;18.736;2022-12-24T17:31:37;12.70;68.40
21439;DHT22;10880;50.302;18.736;2022-12-24T17:34:05;12.70;67.70
21439;DHT22;10880;50.302;18.736;2022-12-24T17:36:32;12.70;67.70
21439;DHT22;10880;50.302;18.736;2022-12-24T17:41:28;12.60;67.80
21439;DHT22;10880;50.302;18.736;2022-12-24T17:43:54;12.70;68.20
21439;DHT22;10880;50.302;18.736;2022-12-24T17:46:22;12.60;67.90
21439;DHT22;10880;50.302;18.736;2022-12-24T17:48:49;12.60;68.20
21439;DHT22;10880;50.302;18.736;2022-12-24T17:51:19;12.60;68.00
21439;DHT22;10880;50.302;18.736;2022-12-24T17:53:46;12.60;68.60
21439;DHT22;10880;50.302;18.736;2022-12-24T17:56:13;12.60;68.40
21439;DHT22;10880;50.302;18.736;2022-12-24T17:58:42;12.60;68.60
21439;DHT22;10880;50.302;18.736;2022-12-24T18:01:11;12.60;68.00
21439;DHT22;10880;50.302;18.736;2022-12-24T18:03:38;12.60;68.00
21439;DHT22;10880;50.302;18.736;2022-12-24T18:06:06;12.60;68.20
21439;DHT22;10880;50.302;18.736;2022-12-24T18:08:34;12.60;68.00
21439;DHT22;10880;50.302;18.736;2022-12-24T18:11:10;12.60;67.90
21439;DHT22;10880;50.302;18.736;2022-12-24T18:13:37;12.60;68.50
21439;DHT22;10880;50.302;18.736;2022-12-24T18:16:16;12.60;68.50
21439;DHT22;10880;50.302;18.736;2022-12-24T18:18:44;12.50;68.50
21439;DHT22;10880;50.302;18.736;2022-12-24T18:21:10;12.60;68.00
21439;DHT22;10880;50.302;18.736;2022-12-24T18:23:40;12.50;67.90
21439;DHT22;10880;50.302;18.736;2022-12-24T18:26:08;12.50;68.60
21439;DHT22;10880;50.302;18.736;2022-12-24T18:31:05;12.50;68.10
21439;DHT22;10880;50.302;18.736;2022-12-24T18:33:32;12.60;68.00
21439;DHT22;10880;50.302;18.736;2022-12-24T18:38:26;13.00;68.30
21439;DHT22;10880;50.302;18.736;2022-12-24T18:40:52;12.60;68.00
21439;DHT22;10880;50.302;18.736;2022-12-24T18:43:24;12.50;68.40
21439;DHT22;10880;50.302;18.736;2022-12-24T18:45:55;12.50;67.90
21439;DHT22;10880;50.302;18.736;2022-12-24T18:48:22;12.60;68.00
21439;DHT22;10880;50.302;18.736;2022-12-24T18:50:56;12.50;67.80
21439;DHT22;10880;50.302;18.736;2022-12-24T18:53:24;12.50;68.40
21439;DHT22;10880;50.302;18.736;2022-12-24T18:55:51;12.50;67.90
21439;DHT22;10880;50.302;18.736;2022-12-24T18:58:20;12.50;68.40
21439;DHT22;10880;50.302;18.736;2022-12-24T19:03:13;12.50;67.90
21439;DHT22;10880;50.302;18.736;2022-12-24T19:05:42;12.50;68.10
21439;DHT22;10880;50.302;18.736;2022-12-24T19:08:09;12.50;68.00
21439;DHT22;10880;50.302;18.736;2022-12-24T19:10:36;12.50;67.80